sensor_id;sensor_type;location;lat;lon;timestamp;temperature;humidity
2867;DHT22;1441;48.886;8.728;2023-04-21T00:00:56;5.00;99.90
2867;DHT22;1441;48.886;8.728;2023-04-21T00:03:22;4.90;99.90
2867;DHT22;1441;48.886;8.728;2023-04-21T00:05:49;4.90;99.90
2867;DHT22;1441;48.886;8.728;2023-04-21T00:08:16;5.00;99.90
2867;DHT22;1441;48.886;8.728;2023-04-21T00:10:43;4.90;99.90
2867;DHT22;1441;48.886;8.728;2023-04-21T00:13:09;4.80;99.90
2867;DHT22;1441;48.886;8.728;2023-04-21T00:15:35;4.80;99.90
2867;DHT22;1441;48.886;8.728;2023-04-21T00:18:01;4.80;99.90
2867;DHT22;1441;48.886;8.728;2023-04-21T00:20:28;4.80;99.90
2867;DHT22;1441;48.886;8.728;2023-04-21T00:22:55;4.70;99.90
2867;DHT22;1441;48.886;8.728;2023-04-21T00:25:21;4.70;99.90
2867;DHT22;1441;48.886;8.728;2023-04-21T00:27:47;4.60;99.90
2867;DHT22;1441;48.886;8.728;2023-04-21T00:30:13;4.60;99.90
2867;DHT22;1441;48.886;8.728;2023-04-21T00:32:38;4.60;99.90
2867;DHT22;1441;48.886;8.728;2023-04-21T00:35:04;4.60;99.90
2867;DHT22;1441;48.886;8.728;2023-04-21T00:37:30;4.60;99.90
2867;DHT22;1441;48.886;8.728;2023-04-21T00:39:56;4.60;99.90
2867;DHT22;1441;48.886;8.728;2023-04-21T00:42:23;4.60;99.90
2867;DHT22;1441;48.886;8.728;2023-04-21T00:44:48;4.60;99.90
2867;DHT22;1441;48.886;8.728;2023-04-21T00:47:14;4.60;99.90
2867;DHT22;1441;48.886;8.728;2023-04-21T00:49:40;4.50;99.90
2867;DHT22;1441;48.886;8.728;2023-04-21T00:52:06;4.50;99.90
2867;DHT22;1441;48.886;8.728;2023-04-21T00:54:31;4.70;99.90
2867;DHT22;1441;48.886;8.728;2023-04-21T00:56:59;4.90;99.90
2867;DHT22;1441;48.886;8.728;2023-04-21T00:59:26;5.10;99.90
2867;DHT22;1441;48.886;8.728;2023-04-21T01:01:52;5.00;99.90
2867;DHT22;1441;48.886;8.728;2023-04-21T01:04:17;5.10;99.90
2867;DHT22;1441;48.886;8.728;2023-04-21T01:06:43;4.90;99.90
2867;DHT22;1441;48.886;8.728;2023-04-21T01:09:09;4.90;99.90
2867;DHT22;1441;48.886;8.728;2023-04-21T01:11:37;4.80;99.90
2867;DHT22;1441;48.886;8.728;2023-04-21T01:14:03;4.80;99.90
2867;DHT22;1441;48.886;8.728;2023-04-21T01:16:30;4.80;99.90
2867;DHT22;1441;48.886;8.728;2023-04-21T01:18:57;4.80;99.90
2867;DHT22;1441;48.886;8.728;2023-04-21T01:21:23;4.80;99.90
2867;DHT22;1441;48.886;8.728;2023-04-21T01:23:49;4.80;99.90
2867;DHT22;1441;48.886;8.728;2023-04-21T01:26:19;4.80;99.90
2867;DHT22;1441;48.886;8.728;2023-04-21T01:28:46;4.80;99.90
2867;DHT22;1441;48.886;8.728;2023-04-21T01:31:13;4.70;99.90
2867;DHT22;1441;48.886;8.728;2023-04-21T01:33:39;4.70;99.90
2867;DHT22;1441;48.886;8.728;2023-04-21T01:36:05;4.70;99.90
2867;DHT22;1441;48.886;8.728;2023-04-21T01:38:30;4.70;99.90
2867;DHT22;1441;48.886;8.728;2023-04-21T01:40:56;4.60;99.90
2867;DHT22;1441;48.886;8.728;2023-04-21T01:43:24;4.60;99.90
2867;DHT22;1441;48.886;8.728;2023-04-21T01:45:50;4.60;99.90
2867;DHT22;1441;48.886;8.728;2023-04-21T01:48:16;4.60;99.90
2867;DHT22;1441;48.886;8.728;2023-04-21T01:50:42;4.50;99.90
2867;DHT22;1441;48.886;8.728;2023-04-21T01:53:07;4.50;99.90
2867;DHT22;1441;48.886;8.728;2023-04-21T01:55:33;4.50;99.90
2867;DHT22;1441;48.886;8.728;2023-04-21T01:57:59;4.40;99.90
2867;DHT22;1441;48.886;8.728;2023-04-21T02:00:25;4.40;99.90
2867;DHT22;1441;48.886;8.728;2023-04-21T02:02:51;4.30;99.90
2867;DHT22;1441;48.886;8.728;2023-04-21T02:05:17;4.30;99.90
2867;DHT22;1441;48.886;8.728;2023-04-21T02:07:43;4.20;99.90
2867;DHT22;1441;48.886;8.728;2023-04-21T02:10:09;4.20;99.90
2867;DHT22;1441;48.886;8.728;2023-04-21T02:12:35;4.20;99.90
2867;DHT22;1441;48.886;8.728;2023-04-21T02:15:00;4.20;99.90
2867;DHT22;1441;48.886;8.728;2023-04-21T02:17:26;4.20;99.90
2867;DHT22;1441;48.886;8.728;2023-04-21T02:19:51;4.20;99.90
2867;DHT22;1441;48.886;8.728;2023-04-21T02:22:17;4.20;99.90
2867;DHT22;1441;48.886;8.728;2023-04-21T02:24:43;4.20;99.90
2867;DHT22;1441;48.886;8.728;2023-04-21T02:27:08;4.20;99.90
2867;DHT22;1441;48.886;8.728;2023-04-21T02:29:34;4.30;99.90
2867;DHT22;1441;48.886;8.728;2023-04-21T02:31:59;4.10;99.90
2867;DHT22;1441;48.886;8.728;2023-04-21T02:34:25;4.20;99.90
2867;DHT22;1441;48.886;8.728;2023-04-21T02:36:51;4.10;99.90
2867;DHT22;1441;48.886;8.728;2023-04-21T02:39:16;4.00;99.90
2867;DHT22;1441;48.886;8.728;2023-04-21T02:41:42;3.90;99.90
2867;DHT22;1441;48.886;8.728;2023-04-21T02:44:07;3.90;99.90
2867;DHT22;1441;48.886;8.728;2023-04-21T02:46:33;3.90;99.90
2867;DHT22;1441;48.886;8.728;2023-04-21T02:48:58;4.00;99.90
2867;DHT22;1441;48.886;8.728;2023-04-21T02:51:24;3.80;99.90
2867;DHT22;1441;48.886;8.728;2023-04-21T02:53:50;3.80;99.90
2867;DHT22;1441;48.886;8.728;2023-04-21T02:56:15;4.10;99.90
2867;DHT22;1441;48.886;8.728;2023-04-21T02:58:41;4.00;99.90
2867;DHT22;1441;48.886;8.728;2023-04-21T03:01:06;4.00;99.90
2867;DHT22;1441;48.886;8.728;2023-04-21T03:03:32;4.00;99.90
2867;DHT22;1441;48.886;8.728;2023-04-21T03:05:58;3.90;99.90
2867;DHT22;1441;48.886;8.728;2023-04-21T03:08:24;3.80;99.90
2867;DHT22;1441;48.886;8.728;2023-04-21T03:10:50;3.80;99.90
2867;DHT22;1441;48.886;8.728;2023-04-21T03:13:15;3.80;99.90
2867;DHT22;1441;48.886;8.728;2023-04-21T03:15:41;3.80;99.90
2867;DHT22;1441;48.886;8.728;2023-04-21T03:18:07;3.80;99.90
2867;DHT22;1441;48.886;8.728;2023-04-21T03:20:33;3.90;99.90
2867;DHT22;1441;48.886;8.728;2023-04-21T03:22:58;3.90;99.90
2867;DHT22;1441;48.886;8.728;2023-04-21T03:25:24;3.70;99.90
2867;DHT22;1441;48.886;8.728;2023-04-21T03:27:52;3.60;99.90
2867;DHT22;1441;48.886;8.728;2023-04-21T03:30:18;3.70;99.90
2867;DHT22;1441;48.886;8.728;2023-04-21T03:32:44;3.80;99.90
2867;DHT22;1441;48.886;8.728;2023-04-21T03:35:09;3.80;99.90
2867;DHT22;1441;48.886;8.728;2023-04-21T03:37:35;3.70;99.90
2867;DHT22;1441;48.886;8.728;2023-04-21T03:40:02;3.70;99.90
2867;DHT22;1441;48.886;8.728;2023-04-21T03:42:30;3.70;99.90
2867;DHT22;1441;48.886;8.728;2023-04-21T03:44:59;3.70;99.90
2867;DHT22;1441;48.886;8.728;2023-04-21T03:47:25;3.60;99.90
2867;DHT22;1441;48.886;8.728;2023-04-21T03:49:50;3.60;99.90
2867;DHT22;1441;48.886;8.728;2023-04-21T03:52:16;3.70;99.90
2867;DHT22;1441;48.886;8.728;2023-04-21T03:54:41;3.80;99.90
2867;DHT22;1441;48.886;8.728;2023-04-21T03:57:07;3.60;99.90
2867;DHT22;1441;48.886;8.728;2023-04-21T03:59:33;3.50;99.90
2867;DHT22;1441;48.886;8.728;2023-04-21T04:01:58;3.50;99.90
2867;DHT22;1441;48.886;8.728;2023-04-21T04:04:24;3.50;99.90
2867;DHT22;1441;48.886;8.728;2023-04-21T04:06:49;3.40;99.90
2867;DHT22;1441;48.886;8.728;2023-04-21T04:09:15;3.50;99.90
2867;DHT22;1441;48.886;8.728;2023-04-21T04:11:40;3.70;99.90
2867;DHT22;1441;48.886;8.728;2023-04-21T04:14:06;3.50;99.90
2867;DHT22;1441;48.886;8.728;2023-04-21T04:16:33;3.50;99.90
2867;DHT22;1441;48.886;8.728;2023-04-21T04:18:59;3.50;99.90
2867;DHT22;1441;48.886;8.728;2023-04-21T04:21:24;3.60;99.90
2867;DHT22;1441;48.886;8.728;2023-04-21T04:23:51;3.70;99.90
2867;DHT22;1441;48.886;8.728;2023-04-21T04:26:18;3.80;99.90
2867;DHT22;1441;48.886;8.728;2023-04-21T04:28:44;3.70;99.90
2867;DHT22;1441;48.886;8.728;2023-04-21T04:31:09;3.60;99.90
2867;DHT22;1441;48.886;8.728;2023-04-21T04:33:35;3.70;99.90
2867;DHT22;1441;48.886;8.728;2023-04-21T04:36:00;3.60;99.90
2867;DHT22;1441;48.886;8.728;2023-04-21T04:38:26;3.60;99.90
2867;DHT22;1441;48.886;8.728;2023-04-21T04:40:55;3.50;99.90
2867;DHT22;1441;48.886;8.728;2023-04-21T04:43:23;3.60;99.90
2867;DHT22;1441;48.886;8.728;2023-04-21T04:45:49;3.60;99.90
2867;DHT22;1441;48.886;8.728;2023-04-21T04:48:16;3.60;99.90
2867;DHT22;1441;48.886;8.728;2023-04-21T04:50:41;3.60;99.90
2867;DHT22;1441;48.886;8.728;2023-04-21T04:53:07;3.60;99.90
2867;DHT22;1441;48.886;8.728;2023-04-21T04:55:32;3.70;99.90
2867;DHT22;1441;48.886;8.728;2023-04-21T04:57:58;3.80;99.90
2867;DHT22;1441;48.886;8.728;2023-04-21T05:00:23;3.80;99.90
2867;DHT22;1441;48.886;8.728;2023-04-21T05:02:49;3.80;99.90
2867;DHT22;1441;48.886;8.728;2023-04-21T05:05:15;3.90;99.90
2867;DHT22;1441;48.886;8.728;2023-04-21T05:07:40;3.90;99.90
2867;DHT22;1441;48.886;8.728;2023-04-21T05:10:06;4.00;99.90
2867;DHT22;1441;48.886;8.728;2023-04-21T05:12:32;3.90;99.90
2867;DHT22;1441;48.886;8.728;2023-04-21T05:14:57;4.00;99.90
2867;DHT22;1441;48.886;8.728;2023-04-21T05:17:23;4.00;99.90
2867;DHT22;1441;48.886;8.728;2023-04-21T05:19:48;4.10;99.90
2867;DHT22;1441;48.886;8.728;2023-04-21T05:22:14;4.10;99.90
2867;DHT22;1441;48.886;8.728;2023-04-21T05:24:40;4.20;99.90
2867;DHT22;1441;48.886;8.728;2023-04-21T05:27:07;4.30;99.90
2867;DHT22;1441;48.886;8.728;2023-04-21T05:29:32;4.30;99.90
2867;DHT22;1441;48.886;8.728;2023-04-21T05:31:58;4.30;99.90
2867;DHT22;1441;48.886;8.728;2023-04-21T05:34:24;4.30;99.90
2867;DHT22;1441;48.886;8.728;2023-04-21T05:36:50;4.30;99.90
2867;DHT22;1441;48.886;8.728;2023-04-21T05:39:16;4.40;99.90
2867;DHT22;1441;48.886;8.728;2023-04-21T05:41:42;4.40;99.90
2867;DHT22;1441;48.886;8.728;2023-04-21T05:44:08;4.70;99.90
2867;DHT22;1441;48.886;8.728;2023-04-21T05:46:33;4.90;99.90
2867;DHT22;1441;48.886;8.728;2023-04-21T05:48:59;4.90;99.90
2867;DHT22;1441;48.886;8.728;2023-04-21T05:51:27;5.20;99.90
2867;DHT22;1441;48.886;8.728;2023-04-21T05:53:52;5.20;99.90
2867;DHT22;1441;48.886;8.728;2023-04-21T05:56:18;5.20;99.90
2867;DHT22;1441;48.886;8.728;2023-04-21T05:58:43;5.40;99.90
2867;DHT22;1441;48.886;8.728;2023-04-21T06:01:09;5.80;99.90
2867;DHT22;1441;48.886;8.728;2023-04-21T06:03:35;6.10;99.90
2867;DHT22;1441;48.886;8.728;2023-04-21T06:06:02;6.20;99.90
2867;DHT22;1441;48.886;8.728;2023-04-21T06:08:28;6.00;99.90
2867;DHT22;1441;48.886;8.728;2023-04-21T06:10:54;6.30;99.90
2867;DHT22;1441;48.886;8.728;2023-04-21T06:13:20;6.80;99.90
2867;DHT22;1441;48.886;8.728;2023-04-21T06:15:45;7.70;99.90
2867;DHT22;1441;48.886;8.728;2023-04-21T06:18:11;9.80;96.10
2867;DHT22;1441;48.886;8.728;2023-04-21T06:20:36;13.00;84.70
2867;DHT22;1441;48.886;8.728;2023-04-21T06:23:02;15.10;76.40
2867;DHT22;1441;48.886;8.728;2023-04-21T06:25:27;15.30;74.40
2867;DHT22;1441;48.886;8.728;2023-04-21T06:27:54;13.40;76.60
2867;DHT22;1441;48.886;8.728;2023-04-21T06:30:20;12.00;81.10
2867;DHT22;1441;48.886;8.728;2023-04-21T06:32:46;10.90;84.60
2867;DHT22;1441;48.886;8.728;2023-04-21T06:35:13;10.70;86.20
2867;DHT22;1441;48.886;8.728;2023-04-21T06:37:42;10.60;86.90
2867;DHT22;1441;48.886;8.728;2023-04-21T06:40:08;10.80;86.40
2867;DHT22;1441;48.886;8.728;2023-04-21T06:42:34;10.40;87.40
2867;DHT22;1441;48.886;8.728;2023-04-21T06:44:59;10.80;86.70
2867;DHT22;1441;48.886;8.728;2023-04-21T06:47:25;11.20;85.90
2867;DHT22;1441;48.886;8.728;2023-04-21T06:49:50;11.20;87.00
2867;DHT22;1441;48.886;8.728;2023-04-21T06:52:16;12.20;84.40
2867;DHT22;1441;48.886;8.728;2023-04-21T06:54:42;14.30;78.80
2867;DHT22;1441;48.886;8.728;2023-04-21T06:57:07;15.30;73.90
2867;DHT22;1441;48.886;8.728;2023-04-21T06:59:33;15.80;71.30
2867;DHT22;1441;48.886;8.728;2023-04-21T07:01:59;15.40;72.50
2867;DHT22;1441;48.886;8.728;2023-04-21T07:04:24;14.50;73.90
2867;DHT22;1441;48.886;8.728;2023-04-21T07:06:54;13.50;77.30
2867;DHT22;1441;48.886;8.728;2023-04-21T07:09:20;13.00;78.40
2867;DHT22;1441;48.886;8.728;2023-04-21T07:11:46;12.40;80.00
2867;DHT22;1441;48.886;8.728;2023-04-21T07:14:11;12.20;82.10
2867;DHT22;1441;48.886;8.728;2023-04-21T07:16:37;12.10;83.10
2867;DHT22;1441;48.886;8.728;2023-04-21T07:19:02;12.60;82.30
2867;DHT22;1441;48.886;8.728;2023-04-21T07:21:28;13.00;82.60
2867;DHT22;1441;48.886;8.728;2023-04-21T07:24:00;14.80;78.30
2867;DHT22;1441;48.886;8.728;2023-04-21T07:26:26;15.90;72.00
2867;DHT22;1441;48.886;8.728;2023-04-21T07:28:52;16.60;70.60
2867;DHT22;1441;48.886;8.728;2023-04-21T07:31:19;18.50;66.90
2867;DHT22;1441;48.886;8.728;2023-04-21T07:33:45;20.00;63.70
2867;DHT22;1441;48.886;8.728;2023-04-21T07:36:11;19.50;61.40
2867;DHT22;1441;48.886;8.728;2023-04-21T07:38:36;16.90;67.50
2867;DHT22;1441;48.886;8.728;2023-04-21T07:41:03;14.90;73.80
2867;DHT22;1441;48.886;8.728;2023-04-21T07:43:28;14.30;77.60
2867;DHT22;1441;48.886;8.728;2023-04-21T07:45:56;16.30;73.80
2867;DHT22;1441;48.886;8.728;2023-04-21T07:48:21;18.90;67.40
2867;DHT22;1441;48.886;8.728;2023-04-21T07:50:47;20.20;63.90
2867;DHT22;1441;48.886;8.728;2023-04-21T07:53:14;21.50;61.10
2867;DHT22;1441;48.886;8.728;2023-04-21T07:55:40;23.10;57.70
2867;DHT22;1441;48.886;8.728;2023-04-21T07:58:05;24.20;54.60
2867;DHT22;1441;48.886;8.728;2023-04-21T08:00:31;23.40;54.50
2867;DHT22;1441;48.886;8.728;2023-04-21T08:02:57;23.70;55.50
2867;DHT22;1441;48.886;8.728;2023-04-21T08:05:22;24.00;55.10
2867;DHT22;1441;48.886;8.728;2023-04-21T08:07:48;23.50;54.80
2867;DHT22;1441;48.886;8.728;2023-04-21T08:10:13;23.30;55.60
2867;DHT22;1441;48.886;8.728;2023-04-21T08:12:39;23.70;56.40
2867;DHT22;1441;48.886;8.728;2023-04-21T08:15:05;24.60;54.20
2867;DHT22;1441;48.886;8.728;2023-04-21T08:17:32;24.30;54.10
2867;DHT22;1441;48.886;8.728;2023-04-21T08:19:58;24.50;53.30
2867;DHT22;1441;48.886;8.728;2023-04-21T08:22:24;24.30;53.40
2867;DHT22;1441;48.886;8.728;2023-04-21T08:24:49;23.80;54.30
2867;DHT22;1441;48.886;8.728;2023-04-21T08:27:15;23.80;54.50
2867;DHT22;1441;48.886;8.728;2023-04-21T08:29:41;24.20;53.80
2867;DHT22;1441;48.886;8.728;2023-04-21T08:32:06;23.60;54.30
2867;DHT22;1441;48.886;8.728;2023-04-21T08:34:32;24.20;55.10
2867;DHT22;1441;48.886;8.728;2023-04-21T08:36:58;24.00;54.70
2867;DHT22;1441;48.886;8.728;2023-04-21T08:39:23;24.40;54.50
2867;DHT22;1441;48.886;8.728;2023-04-21T08:41:49;24.60;53.20
2867;DHT22;1441;48.886;8.728;2023-04-21T08:44:15;25.20;53.80
2867;DHT22;1441;48.886;8.728;2023-04-21T08:46:44;25.40;51.80
2867;DHT22;1441;48.886;8.728;2023-04-21T08:49:11;25.50;52.20
2867;DHT22;1441;48.886;8.728;2023-04-21T08:51:41;25.20;52.60
2867;DHT22;1441;48.886;8.728;2023-04-21T08:54:07;25.80;52.00
2867;DHT22;1441;48.886;8.728;2023-04-21T08:56:33;25.40;50.90
2867;DHT22;1441;48.886;8.728;2023-04-21T08:58:59;24.70;51.90
2867;DHT22;1441;48.886;8.728;2023-04-21T09:01:25;24.50;53.40
2867;DHT22;1441;48.886;8.728;2023-04-21T09:03:50;25.30;52.20
2867;DHT22;1441;48.886;8.728;2023-04-21T09:06:16;24.70;52.70
2867;DHT22;1441;48.886;8.728;2023-04-21T09:08:43;24.20;53.40
2867;DHT22;1441;48.886;8.728;2023-04-21T09:11:16;24.40;53.40
2867;DHT22;1441;48.886;8.728;2023-04-21T09:13:42;24.90;53.20
2867;DHT22;1441;48.886;8.728;2023-04-21T09:16:16;25.30;52.10
2867;DHT22;1441;48.886;8.728;2023-04-21T09:18:43;25.50;51.90
2867;DHT22;1441;48.886;8.728;2023-04-21T09:21:09;25.30;52.70
2867;DHT22;1441;48.886;8.728;2023-04-21T09:23:53;25.20;51.70
2867;DHT22;1441;48.886;8.728;2023-04-21T09:26:21;25.40;52.70
2867;DHT22;1441;48.886;8.728;2023-04-21T09:28:50;25.10;52.40
2867;DHT22;1441;48.886;8.728;2023-04-21T09:31:18;24.80;52.50
2867;DHT22;1441;48.886;8.728;2023-04-21T09:33:46;24.80;53.10
2867;DHT22;1441;48.886;8.728;2023-04-21T09:36:18;24.70;53.50
2867;DHT22;1441;48.886;8.728;2023-04-21T09:38:48;24.20;53.10
2867;DHT22;1441;48.886;8.728;2023-04-21T09:41:16;23.40;55.60
2867;DHT22;1441;48.886;8.728;2023-04-21T09:43:42;22.90;56.50
2867;DHT22;1441;48.886;8.728;2023-04-21T09:46:08;22.60;57.10
2867;DHT22;1441;48.886;8.728;2023-04-21T09:48:35;22.70;57.30
2867;DHT22;1441;48.886;8.728;2023-04-21T09:51:02;22.80;58.80
2867;DHT22;1441;48.886;8.728;2023-04-21T09:53:29;23.60;57.20
2867;DHT22;1441;48.886;8.728;2023-04-21T09:55:58;23.80;55.80
2867;DHT22;1441;48.886;8.728;2023-04-21T09:58:27;22.20;56.90
2867;DHT22;1441;48.886;8.728;2023-04-21T10:00:57;21.70;59.90
2867;DHT22;1441;48.886;8.728;2023-04-21T10:03:26;21.40;59.90
2867;DHT22;1441;48.886;8.728;2023-04-21T10:05:52;21.10;61.10
2867;DHT22;1441;48.886;8.728;2023-04-21T10:08:18;20.00;63.30
2867;DHT22;1441;48.886;8.728;2023-04-21T10:10:44;20.00;63.70
2867;DHT22;1441;48.886;8.728;2023-04-21T10:13:13;20.10;64.50
2867;DHT22;1441;48.886;8.728;2023-04-21T10:15:41;20.10;64.90
2867;DHT22;1441;48.886;8.728;2023-04-21T10:21:09;19.40;65.10
2867;DHT22;1441;48.886;8.728;2023-04-21T10:23:44;19.40;66.00
2867;DHT22;1441;48.886;8.728;2023-04-21T10:39:34;19.30;68.00
2867;DHT22;1441;48.886;8.728;2023-04-21T10:44:42;19.00;68.30
2867;DHT22;1441;48.886;8.728;2023-04-21T10:47:08;18.70;68.50
2867;DHT22;1441;48.886;8.728;2023-04-21T10:49:38;18.50;69.90
2867;DHT22;1441;48.886;8.728;2023-04-21T10:52:08;18.70;69.90
2867;DHT22;1441;48.886;8.728;2023-04-21T10:54:43;19.00;70.80
2867;DHT22;1441;48.886;8.728;2023-04-21T10:57:31;19.10;69.60
2867;DHT22;1441;48.886;8.728;2023-04-21T10:59:57;19.00;70.20
2867;DHT22;1441;48.886;8.728;2023-04-21T11:02:23;19.10;70.20
2867;DHT22;1441;48.886;8.728;2023-04-21T11:04:55;19.00;70.00
2867;DHT22;1441;48.886;8.728;2023-04-21T11:07:22;19.00;70.90
2867;DHT22;1441;48.886;8.728;2023-04-21T11:09:59;19.00;69.90
2867;DHT22;1441;48.886;8.728;2023-04-21T11:12:33;19.00;70.80
2867;DHT22;1441;48.886;8.728;2023-04-21T11:15:03;19.10;71.20
2867;DHT22;1441;48.886;8.728;2023-04-21T11:17:29;19.10;69.50
2867;DHT22;1441;48.886;8.728;2023-04-21T11:19:55;18.90;71.20
2867;DHT22;1441;48.886;8.728;2023-04-21T11:22:22;18.90;70.30
2867;DHT22;1441;48.886;8.728;2023-04-21T11:24:52;18.90;70.90
2867;DHT22;1441;48.886;8.728;2023-04-21T11:27:18;18.90;71.00
2867;DHT22;1441;48.886;8.728;2023-04-21T11:29:44;18.90;70.80
2867;DHT22;1441;48.886;8.728;2023-04-21T11:32:11;18.80;71.10
2867;DHT22;1441;48.886;8.728;2023-04-21T11:34:37;18.80;71.20
2867;DHT22;1441;48.886;8.728;2023-04-21T11:37:03;19.10;71.20
2867;DHT22;1441;48.886;8.728;2023-04-21T11:39:31;19.10;71.00
2867;DHT22;1441;48.886;8.728;2023-04-21T11:41:57;19.20;71.60
2867;DHT22;1441;48.886;8.728;2023-04-21T11:46:58;19.20;70.70
2867;DHT22;1441;48.886;8.728;2023-04-21T11:49:25;19.10;69.50
2867;DHT22;1441;48.886;8.728;2023-04-21T11:51:53;19.00;71.00
2867;DHT22;1441;48.886;8.728;2023-04-21T11:54:19;19.00;71.20
2867;DHT22;1441;48.886;8.728;2023-04-21T11:56:49;19.00;71.80
2867;DHT22;1441;48.886;8.728;2023-04-21T11:59:17;19.10;70.60
2867;DHT22;1441;48.886;8.728;2023-04-21T12:01:44;19.00;70.70
2867;DHT22;1441;48.886;8.728;2023-04-21T12:04:21;19.00;71.30
2867;DHT22;1441;48.886;8.728;2023-04-21T12:06:59;19.00;72.00
2867;DHT22;1441;48.886;8.728;2023-04-21T12:09:25;19.00;72.30
2867;DHT22;1441;48.886;8.728;2023-04-21T12:11:53;19.00;71.70
2867;DHT22;1441;48.886;8.728;2023-04-21T12:14:20;18.90;72.20
2867;DHT22;1441;48.886;8.728;2023-04-21T12:16:51;18.80;71.90
2867;DHT22;1441;48.886;8.728;2023-04-21T12:19:37;18.90;72.80
2867;DHT22;1441;48.886;8.728;2023-04-21T12:22:10;19.10;71.80
2867;DHT22;1441;48.886;8.728;2023-04-21T12:24:37;19.30;71.60
2867;DHT22;1441;48.886;8.728;2023-04-21T12:27:04;19.10;70.80
2867;DHT22;1441;48.886;8.728;2023-04-21T12:29:30;19.00;70.40
2867;DHT22;1441;48.886;8.728;2023-04-21T12:31:55;19.00;72.10
2867;DHT22;1441;48.886;8.728;2023-04-21T12:34:21;19.10;70.20
2867;DHT22;1441;48.886;8.728;2023-04-21T12:36:47;19.00;70.20
2867;DHT22;1441;48.886;8.728;2023-04-21T12:39:12;19.00;71.70
2867;DHT22;1441;48.886;8.728;2023-04-21T12:41:39;19.30;71.00
2867;DHT22;1441;48.886;8.728;2023-04-21T12:44:05;19.40;70.80
2867;DHT22;1441;48.886;8.728;2023-04-21T12:46:31;19.50;69.80
2867;DHT22;1441;48.886;8.728;2023-04-21T12:48:56;18.90;71.40
2867;DHT22;1441;48.886;8.728;2023-04-21T12:51:22;18.90;71.90
2867;DHT22;1441;48.886;8.728;2023-04-21T12:53:48;19.00;71.80
2867;DHT22;1441;48.886;8.728;2023-04-21T12:56:13;19.10;70.50
2867;DHT22;1441;48.886;8.728;2023-04-21T12:58:39;19.20;71.60
2867;DHT22;1441;48.886;8.728;2023-04-21T13:01:04;19.30;71.00
2867;DHT22;1441;48.886;8.728;2023-04-21T13:03:30;19.50;70.70
2867;DHT22;1441;48.886;8.728;2023-04-21T13:05:56;19.70;70.90
2867;DHT22;1441;48.886;8.728;2023-04-21T13:08:22;19.60;70.40
2867;DHT22;1441;48.886;8.728;2023-04-21T13:10:47;19.60;70.70
2867;DHT22;1441;48.886;8.728;2023-04-21T13:13:13;19.40;71.10
2867;DHT22;1441;48.886;8.728;2023-04-21T13:15:39;19.40;69.90
2867;DHT22;1441;48.886;8.728;2023-04-21T13:18:05;19.30;70.20
2867;DHT22;1441;48.886;8.728;2023-04-21T13:20:31;19.50;69.80
2867;DHT22;1441;48.886;8.728;2023-04-21T13:22:57;19.40;70.40
2867;DHT22;1441;48.886;8.728;2023-04-21T13:25:22;19.40;70.80
2867;DHT22;1441;48.886;8.728;2023-04-21T13:27:48;19.50;70.40
2867;DHT22;1441;48.886;8.728;2023-04-21T13:30:14;19.50;70.90
2867;DHT22;1441;48.886;8.728;2023-04-21T13:32:41;19.50;70.20
2867;DHT22;1441;48.886;8.728;2023-04-21T13:35:07;19.50;70.70
2867;DHT22;1441;48.886;8.728;2023-04-21T13:37:38;19.60;70.20
2867;DHT22;1441;48.886;8.728;2023-04-21T13:40:05;19.40;70.50
2867;DHT22;1441;48.886;8.728;2023-04-21T13:42:32;19.40;68.50
2867;DHT22;1441;48.886;8.728;2023-04-21T13:45:05;19.40;70.60
2867;DHT22;1441;48.886;8.728;2023-04-21T13:47:32;19.60;69.90
2867;DHT22;1441;48.886;8.728;2023-04-21T13:49:58;19.70;68.80
2867;DHT22;1441;48.886;8.728;2023-04-21T13:52:25;19.50;69.00
2867;DHT22;1441;48.886;8.728;2023-04-21T13:54:51;19.50;70.00
2867;DHT22;1441;48.886;8.728;2023-04-21T13:57:18;19.50;69.40
2867;DHT22;1441;48.886;8.728;2023-04-21T13:59:43;19.60;69.20
2867;DHT22;1441;48.886;8.728;2023-04-21T14:02:09;19.50;69.50
2867;DHT22;1441;48.886;8.728;2023-04-21T14:04:34;19.60;68.90
2867;DHT22;1441;48.886;8.728;2023-04-21T14:07:01;19.70;69.60
2867;DHT22;1441;48.886;8.728;2023-04-21T14:09:27;19.80;70.00
2867;DHT22;1441;48.886;8.728;2023-04-21T14:11:52;19.80;70.60
2867;DHT22;1441;48.886;8.728;2023-04-21T14:14:18;19.80;69.80
2867;DHT22;1441;48.886;8.728;2023-04-21T14:16:45;19.80;69.60
2867;DHT22;1441;48.886;8.728;2023-04-21T14:19:14;20.00;71.10
2867;DHT22;1441;48.886;8.728;2023-04-21T14:21:40;20.10;70.00
2867;DHT22;1441;48.886;8.728;2023-04-21T14:24:05;20.00;69.60
2867;DHT22;1441;48.886;8.728;2023-04-21T14:26:31;20.10;69.90
2867;DHT22;1441;48.886;8.728;2023-04-21T14:28:56;19.90;70.20
2867;DHT22;1441;48.886;8.728;2023-04-21T14:31:24;19.80;70.80
2867;DHT22;1441;48.886;8.728;2023-04-21T14:33:49;19.70;70.40
2867;DHT22;1441;48.886;8.728;2023-04-21T14:36:15;19.60;70.90
2867;DHT22;1441;48.886;8.728;2023-04-21T14:38:41;19.50;71.80
2867;DHT22;1441;48.886;8.728;2023-04-21T14:41:07;19.50;71.80
2867;DHT22;1441;48.886;8.728;2023-04-21T14:43:33;19.40;69.90
2867;DHT22;1441;48.886;8.728;2023-04-21T14:45:59;19.30;69.60
2867;DHT22;1441;48.886;8.728;2023-04-21T14:48:25;19.50;70.80
2867;DHT22;1441;48.886;8.728;2023-04-21T14:50:50;19.40;70.70
2867;DHT22;1441;48.886;8.728;2023-04-21T14:53:16;19.40;71.70
2867;DHT22;1441;48.886;8.728;2023-04-21T14:55:41;19.50;71.70
2867;DHT22;1441;48.886;8.728;2023-04-21T14:58:07;19.50;71.20
2867;DHT22;1441;48.886;8.728;2023-04-21T15:00:33;19.60;71.40
2867;DHT22;1441;48.886;8.728;2023-04-21T15:03:00;19.60;70.40
2867;DHT22;1441;48.886;8.728;2023-04-21T15:05:26;19.30;70.80
2867;DHT22;1441;48.886;8.728;2023-04-21T15:07:52;19.10;70.90
2867;DHT22;1441;48.886;8.728;2023-04-21T15:10:17;18.80;71.60
2867;DHT22;1441;48.886;8.728;2023-04-21T15:12:43;18.70;73.00
2867;DHT22;1441;48.886;8.728;2023-04-21T15:15:09;18.60;72.30
2867;DHT22;1441;48.886;8.728;2023-04-21T15:17:35;18.60;72.70
2867;DHT22;1441;48.886;8.728;2023-04-21T15:20:01;18.50;72.90
2867;DHT22;1441;48.886;8.728;2023-04-21T15:22:26;18.50;73.20
2867;DHT22;1441;48.886;8.728;2023-04-21T15:24:52;18.50;73.70
2867;DHT22;1441;48.886;8.728;2023-04-21T15:27:17;18.50;74.00
2867;DHT22;1441;48.886;8.728;2023-04-21T15:29:43;18.60;74.00
2867;DHT22;1441;48.886;8.728;2023-04-21T15:32:09;18.60;73.90
2867;DHT22;1441;48.886;8.728;2023-04-21T15:34:35;18.70;73.70
2867;DHT22;1441;48.886;8.728;2023-04-21T15:37:00;18.60;73.70
2867;DHT22;1441;48.886;8.728;2023-04-21T15:39:26;18.60;73.80
2867;DHT22;1441;48.886;8.728;2023-04-21T15:41:52;18.50;74.20
2867;DHT22;1441;48.886;8.728;2023-04-21T15:44:19;18.50;74.50
2867;DHT22;1441;48.886;8.728;2023-04-21T15:46:45;18.50;74.30
2867;DHT22;1441;48.886;8.728;2023-04-21T15:49:10;18.50;74.20
2867;DHT22;1441;48.886;8.728;2023-04-21T15:51:36;18.50;74.30
2867;DHT22;1441;48.886;8.728;2023-04-21T15:54:03;18.60;74.70
2867;DHT22;1441;48.886;8.728;2023-04-21T15:56:28;18.60;75.10
2867;DHT22;1441;48.886;8.728;2023-04-21T15:58:54;18.50;75.10
2867;DHT22;1441;48.886;8.728;2023-04-21T16:01:20;18.50;75.20
2867;DHT22;1441;48.886;8.728;2023-04-21T16:03:46;18.40;75.90
2867;DHT22;1441;48.886;8.728;2023-04-21T16:06:13;18.50;75.70
2867;DHT22;1441;48.886;8.728;2023-04-21T16:08:39;18.50;76.30
2867;DHT22;1441;48.886;8.728;2023-04-21T16:11:05;18.50;76.60
2867;DHT22;1441;48.886;8.728;2023-04-21T16:13:30;18.60;76.40
2867;DHT22;1441;48.886;8.728;2023-04-21T16:15:56;18.60;75.80
2867;DHT22;1441;48.886;8.728;2023-04-21T16:18:22;18.50;75.30
2867;DHT22;1441;48.886;8.728;2023-04-21T16:20:47;18.30;77.20
2867;DHT22;1441;48.886;8.728;2023-04-21T16:23:13;18.40;78.50